createdAt,value
2017-10-27T00:00:09.344Z,99.99
2017-10-27T00:01:09.281Z,99.99
2017-10-27T00:02:09.345Z,99.99
2017-10-27T00:03:09.300Z,99.99
2017-10-27T00:04:09.346Z,99.99
2017-10-27T00:05:09.286Z,99.99
2017-10-27T00:06:09.283Z,99.99
2017-10-27T00:07:09.405Z,99.99
2017-10-27T00:08:09.209Z,99.99
2017-10-27T00:09:09.253Z,99.99
2017-10-27T00:10:09.202Z,99.99
2017-10-27T00:11:09.252Z,99.99
2017-10-27T00:12:09.253Z,99.99
2017-10-27T00:13:09.273Z,99.99
2017-10-27T00:14:09.228Z,99.99
2017-10-27T00:15:09.272Z,99.99
2017-10-27T00:16:09.203Z,99.99
2017-10-27T00:17:09.209Z,99.99
2017-10-27T00:18:09.311Z,99.99
2017-10-27T00:19:09.314Z,99.99
2017-10-27T00:20:09.284Z,99.18
2017-10-27T00:21:09.334Z,98.48
2017-10-27T00:22:09.339Z,97.83
2017-10-27T00:23:09.318Z,97.12
2017-10-27T00:24:09.342Z,96.34
2017-10-27T00:25:09.250Z,95.83
2017-10-27T00:26:09.249Z,95.50
2017-10-27T00:27:09.343Z,94.64
2017-10-27T00:28:09.249Z,94.50
2017-10-27T00:29:09.308Z,94.99
2017-10-27T00:30:09.229Z,95.18
2017-10-27T00:31:09.314Z,95.04
2017-10-27T00:32:09.249Z,94.75
2017-10-27T00:33:09.350Z,94.77
2017-10-27T00:34:09.345Z,94.72
2017-10-27T00:35:09.267Z,94.99
2017-10-27T00:36:09.328Z,94.75
2017-10-27T00:37:09.257Z,95.28
2017-10-27T00:38:09.365Z,95.45
2017-10-27T00:39:09.368Z,95.58
2017-10-27T00:40:09.294Z,95.69
2017-10-27T00:41:09.369Z,95.34
2017-10-27T00:42:09.368Z,95.83
2017-10-27T00:43:09.302Z,95.85
2017-10-27T00:44:09.370Z,96.07
2017-10-27T00:45:09.303Z,95.91
2017-10-27T00:46:09.370Z,95.96
2017-10-27T00:47:09.299Z,96.15
2017-10-27T00:48:09.371Z,96.50
2017-10-27T00:49:09.305Z,96.72
2017-10-27T00:50:09.374Z,96.39
2017-10-27T00:51:09.314Z,96.74
2017-10-27T00:52:09.311Z,96.61
2017-10-27T00:53:09.376Z,96.91
2017-10-27T00:54:09.376Z,97.10
2017-10-27T00:55:09.309Z,97.26
2017-10-27T00:56:09.377Z,97.31
2017-10-27T00:57:09.311Z,97.58
2017-10-27T00:58:09.314Z,97.55
2017-10-27T00:59:09.363Z,97.69
2017-10-27T01:00:09.377Z,97.74
2017-10-27T01:01:09.364Z,97.72
2017-10-27T01:02:09.370Z,98.07
2017-10-27T01:03:09.371Z,98.04
2017-10-27T01:04:09.287Z,98.21
2017-10-27T01:05:09.283Z,98.18
2017-10-27T01:06:09.351Z,98.37
2017-10-27T01:07:09.334Z,98.64
2017-10-27T01:08:09.315Z,98.42
2017-10-27T01:09:09.384Z,98.64
2017-10-27T01:10:09.384Z,98.61
2017-10-27T01:11:09.314Z,98.66
2017-10-27T01:12:09.387Z,98.59
2017-10-27T01:13:09.386Z,98.53
2017-10-27T01:14:09.388Z,98.66
2017-10-27T01:15:09.329Z,98.83
2017-10-27T01:16:09.315Z,98.77
2017-10-27T01:17:09.271Z,98.66
2017-10-27T01:18:09.321Z,98.80
2017-10-27T01:19:09.389Z,98.26
2017-10-27T01:20:09.395Z,98.29
2017-10-27T01:21:09.391Z,98.55
2017-10-27T01:22:09.393Z,98.50
2017-10-27T01:23:09.326Z,98.53
2017-10-27T01:24:09.394Z,98.69
2017-10-27T01:25:09.396Z,98.55
2017-10-27T01:26:09.393Z,98.55
2017-10-27T01:27:09.330Z,98.55
2017-10-27T01:28:09.328Z,98.85
2017-10-27T01:29:09.397Z,98.85
2017-10-27T01:30:09.332Z,99.15
2017-10-27T01:31:09.329Z,99.10
2017-10-27T01:32:09.400Z,99.37
2017-10-27T01:33:09.333Z,99.51
2017-10-27T01:34:09.404Z,99.64
2017-10-27T01:35:09.332Z,99.56
2017-10-27T01:36:09.401Z,99.51
2017-10-27T01:37:09.410Z,99.48
2017-10-27T01:38:09.368Z,99.51
2017-10-27T01:39:09.406Z,99.67
2017-10-27T01:40:09.338Z,99.64
2017-10-27T01:41:09.404Z,99.48
2017-10-27T01:42:09.338Z,99.48
2017-10-27T01:43:09.337Z,99.07
2017-10-27T01:44:09.406Z,99.18
2017-10-27T01:45:09.334Z,99.07
2017-10-27T01:46:09.448Z,99.29
2017-10-27T01:47:09.411Z,99.23
2017-10-27T01:48:09.341Z,98.94
2017-10-27T01:49:09.408Z,99.26
2017-10-27T01:50:09.356Z,99.34
2017-10-27T01:51:09.339Z,99.53
2017-10-27T01:52:09.411Z,99.67
2017-10-27T01:53:09.346Z,99.96
2017-10-27T01:54:09.423Z,99.99
2017-10-27T01:55:09.376Z,99.99
2017-10-27T01:56:09.345Z,99.99
2017-10-27T01:57:09.415Z,99.99
2017-10-27T01:58:09.398Z,99.99
2017-10-27T01:59:09.312Z,99.99
2017-10-27T02:00:09.347Z,99.99
2017-10-27T02:01:09.382Z,99.99
2017-10-27T02:02:09.385Z,99.99
2017-10-27T02:03:09.382Z,99.99
2017-10-27T02:04:09.280Z,99.99
2017-10-27T02:05:09.370Z,99.99
2017-10-27T02:06:09.360Z,99.99
2017-10-27T02:07:09.323Z,99.99
2017-10-27T02:08:09.319Z,99.99
2017-10-27T02:09:09.320Z,99.99
2017-10-27T02:10:09.373Z,99.99
2017-10-27T02:11:09.365Z,99.99
2017-10-27T02:12:09.319Z,99.99
2017-10-27T02:13:09.368Z,99.99
2017-10-27T02:14:09.277Z,99.99
2017-10-27T02:15:09.375Z,99.99
2017-10-27T02:16:09.324Z,99.99
2017-10-27T02:17:09.275Z,99.99
2017-10-27T02:18:09.380Z,99.99
2017-10-27T02:19:09.308Z,99.99
2017-10-27T02:20:09.389Z,99.99
2017-10-27T02:21:09.358Z,99.99
2017-10-27T02:22:09.426Z,99.99
2017-10-27T02:23:09.355Z,99.99
2017-10-27T02:24:09.328Z,99.99
2017-10-27T02:25:09.381Z,99.99
2017-10-27T02:26:09.380Z,99.99
2017-10-27T02:27:09.415Z,99.99
2017-10-27T02:28:09.371Z,99.99
2017-10-27T02:29:09.300Z,99.99
2017-10-27T02:30:09.318Z,99.99
2017-10-27T02:31:09.334Z,99.99
2017-10-27T02:32:09.341Z,99.99
2017-10-27T02:33:09.424Z,99.99
2017-10-27T02:34:09.427Z,99.99
2017-10-27T02:35:09.421Z,99.99
2017-10-27T02:36:09.336Z,99.99
2017-10-27T02:37:09.319Z,99.99
2017-10-27T02:38:09.439Z,99.99
2017-10-27T02:39:09.441Z,99.99
2017-10-27T02:40:09.374Z,99.99
2017-10-27T02:41:09.440Z,99.99
2017-10-27T02:42:09.441Z,99.99
2017-10-27T02:43:09.374Z,99.99
2017-10-27T02:44:09.371Z,99.99
2017-10-27T02:45:09.451Z,99.99
2017-10-27T02:46:09.377Z,99.99
2017-10-27T02:47:09.460Z,99.99
2017-10-27T02:48:09.337Z,99.99
2017-10-27T02:49:09.328Z,99.99
2017-10-27T02:50:09.381Z,99.99
2017-10-27T02:51:09.337Z,99.99
2017-10-27T02:52:09.410Z,99.99
2017-10-27T02:53:09.411Z,99.99
2017-10-27T02:54:09.376Z,99.99
2017-10-27T02:55:09.344Z,99.99
2017-10-27T02:56:09.320Z,99.99
2017-10-27T02:57:09.325Z,99.99
2017-10-27T02:58:09.348Z,99.92
2017-10-27T02:59:09.397Z,99.94
2017-10-27T03:00:09.300Z,99.62
2017-10-27T03:01:09.306Z,99.89
2017-10-27T03:02:09.351Z,99.86
2017-10-27T03:03:09.300Z,99.72
2017-10-27T03:04:09.401Z,99.81
2017-10-27T03:05:09.307Z,99.72
2017-10-27T03:06:09.305Z,99.75
2017-10-27T03:07:09.352Z,99.86
2017-10-27T03:08:09.392Z,99.99
2017-10-27T03:09:09.455Z,99.99
2017-10-27T03:10:09.386Z,99.99
2017-10-27T03:11:09.479Z,99.99
2017-10-27T03:12:09.406Z,99.99
2017-10-27T03:13:09.458Z,99.99
2017-10-27T03:14:09.407Z,99.99
2017-10-27T03:15:09.459Z,99.99
2017-10-27T03:16:09.465Z,99.99
2017-10-27T03:17:09.397Z,99.99
2017-10-27T03:18:09.463Z,99.92
2017-10-27T03:19:09.463Z,99.48
2017-10-27T03:20:09.400Z,99.37
2017-10-27T03:21:09.463Z,99.34
2017-10-27T03:22:09.394Z,99.29
2017-10-27T03:23:09.413Z,99.48
2017-10-27T03:24:09.466Z,99.43
2017-10-27T03:25:09.467Z,99.43
2017-10-27T03:26:09.487Z,99.48
2017-10-27T03:27:09.412Z,99.15
2017-10-27T03:28:09.397Z,99.10
2017-10-27T03:29:09.336Z,98.99
2017-10-27T03:30:09.405Z,98.40
2017-10-27T03:31:09.402Z,97.88
2017-10-27T03:32:09.401Z,98.10
2017-10-27T03:33:09.381Z,98.23
2017-10-27T03:34:09.455Z,98.37
2017-10-27T03:35:09.438Z,98.40
2017-10-27T03:36:09.399Z,98.12
2017-10-27T03:37:09.336Z,98.15
2017-10-27T03:38:09.383Z,97.96
2017-10-27T03:39:09.361Z,97.88
2017-10-27T03:40:09.454Z,97.83
2017-10-27T03:41:09.358Z,97.47
2017-10-27T03:42:09.420Z,96.88
2017-10-27T03:43:09.346Z,96.80
2017-10-27T03:44:09.338Z,97.28
2017-10-27T03:45:09.339Z,97.55
2017-10-27T03:46:09.366Z,97.47
2017-10-27T03:47:09.430Z,97.34
2017-10-27T03:48:09.479Z,97.50
2017-10-27T03:49:09.568Z,97.55
2017-10-27T03:50:09.485Z,97.64
2017-10-27T03:51:09.446Z,97.53
2017-10-27T03:52:09.413Z,97.64
2017-10-27T03:53:09.483Z,97.85
2017-10-27T03:54:09.485Z,97.93
2017-10-27T03:55:09.488Z,97.91
2017-10-27T03:56:09.417Z,97.93
2017-10-27T03:57:09.419Z,97.96
2017-10-27T03:58:09.484Z,97.93
2017-10-27T03:59:09.505Z,98.07
2017-10-27T04:00:09.416Z,98.04
2017-10-27T04:01:09.419Z,98.26
2017-10-27T04:02:09.491Z,98.55
2017-10-27T04:03:09.493Z,98.31
2017-10-27T04:04:09.490Z,98.12
2017-10-27T04:05:09.424Z,98.10
2017-10-27T04:06:09.417Z,98.31
2017-10-27T04:07:09.577Z,98.12
2017-10-27T04:08:09.497Z,98.02
2017-10-27T04:09:09.423Z,98.26
2017-10-27T04:10:09.494Z,98.34
2017-10-27T04:11:09.494Z,97.96
2017-10-27T04:12:09.425Z,97.55
2017-10-27T04:13:09.498Z,97.28
2017-10-27T04:14:09.385Z,96.20
2017-10-27T04:15:09.445Z,96.45
2017-10-27T04:16:09.499Z,96.50
2017-10-27T04:17:09.498Z,96.34
2017-10-27T04:18:09.497Z,96.36
2017-10-27T04:19:09.432Z,95.88
2017-10-27T04:20:09.499Z,95.69
2017-10-27T04:21:09.463Z,94.86
2017-10-27T04:22:09.505Z,94.80
2017-10-27T04:23:09.434Z,94.56
2017-10-27T04:24:09.501Z,94.88
2017-10-27T04:25:09.432Z,94.45
2017-10-27T04:26:09.508Z,94.93
2017-10-27T04:27:09.438Z,94.64
2017-10-27T04:28:09.435Z,94.99
2017-10-27T04:29:09.715Z,94.80
2017-10-27T04:30:09.506Z,95.04
2017-10-27T04:31:09.438Z,94.50
2017-10-27T04:32:09.574Z,94.93
2017-10-27T04:33:09.512Z,94.75
2017-10-27T04:34:09.435Z,94.42
2017-10-27T04:35:09.507Z,94.10
2017-10-27T04:36:09.491Z,94.15
2017-10-27T04:37:09.440Z,93.85
2017-10-27T04:38:09.525Z,93.91
2017-10-27T04:39:09.509Z,93.96
2017-10-27T04:40:09.439Z,94.15
2017-10-27T04:41:09.453Z,94.18
2017-10-27T04:42:09.409Z,92.99
2017-10-27T04:43:09.514Z,93.16
2017-10-27T04:44:09.515Z,92.40
2017-10-27T04:45:09.514Z,92.46
2017-10-27T04:46:09.447Z,92.19
2017-10-27T04:47:09.469Z,91.63
2017-10-27T04:48:09.505Z,91.73
2017-10-27T04:49:09.490Z,91.20
2017-10-27T04:50:09.479Z,91.03
2017-10-27T04:51:09.495Z,91.55
2017-10-27T04:52:09.504Z,90.77
2017-10-27T04:53:09.429Z,91.47
2017-10-27T04:54:09.489Z,91.97
2017-10-27T04:55:09.509Z,92.51
2017-10-27T04:56:09.521Z,92.40
2017-10-27T04:57:09.383Z,91.86
2017-10-27T04:58:09.453Z,92.38
2017-10-27T04:59:09.524Z,91.82
2017-10-27T05:00:09.461Z,91.92
2017-10-27T05:01:09.558Z,92.46
2017-10-27T05:02:09.525Z,92.65
2017-10-27T05:03:09.458Z,92.16
2017-10-27T05:04:09.552Z,92.22
2017-10-27T05:05:09.458Z,92.86
2017-10-27T05:06:09.528Z,93.70
2017-10-27T05:07:09.464Z,93.24
2017-10-27T05:08:09.529Z,93.16
2017-10-27T05:09:09.456Z,93.13
2017-10-27T05:10:09.530Z,92.68
2017-10-27T05:11:09.533Z,92.91
2017-10-27T05:12:09.463Z,92.89
2017-10-27T05:13:09.532Z,92.57
2017-10-27T05:14:09.465Z,92.99
2017-10-27T05:15:09.538Z,92.99
2017-10-27T05:16:09.457Z,92.65
2017-10-27T05:17:09.500Z,92.81
2017-10-27T05:18:09.414Z,92.57
2017-10-27T05:19:09.396Z,92.99
2017-10-27T05:20:09.502Z,92.46
2017-10-27T05:21:09.522Z,92.91
2017-10-27T05:22:09.437Z,92.99
2017-10-27T05:23:09.439Z,93.08
2017-10-27T05:24:09.441Z,92.62
2017-10-27T05:25:09.440Z,92.11
2017-10-27T05:26:09.445Z,92.16
2017-10-27T05:27:09.489Z,91.95
2017-10-27T05:28:09.497Z,92.03
2017-10-27T05:29:09.502Z,92.16
2017-10-27T05:30:09.411Z,91.84
2017-10-27T05:31:09.470Z,91.92
2017-10-27T05:32:09.399Z,92.11
2017-10-27T05:33:09.493Z,91.86
2017-10-27T05:34:09.496Z,91.25
2017-10-27T05:35:09.419Z,91.14
2017-10-27T05:36:09.527Z,91.71
2017-10-27T05:37:09.430Z,91.73
2017-10-27T05:38:09.416Z,91.41
2017-10-27T05:39:09.318Z,91.07
2017-10-27T05:40:09.314Z,91.28
2017-10-27T05:41:09.318Z,91.28
2017-10-27T05:42:09.396Z,91.44
2017-10-27T05:43:09.318Z,91.17
2017-10-27T05:44:09.316Z,90.58
2017-10-27T05:45:09.348Z,90.34
2017-10-27T05:46:09.320Z,90.23
2017-10-27T05:47:09.316Z,90.13
2017-10-27T05:48:09.321Z,90.66
2017-10-27T05:49:09.524Z,90.63
2017-10-27T05:50:09.523Z,90.61
2017-10-27T05:51:09.434Z,90.42
2017-10-27T05:52:09.544Z,91.11
2017-10-27T05:53:09.418Z,90.58
2017-10-27T05:54:09.523Z,91.22
2017-10-27T05:55:09.510Z,91.09
2017-10-27T05:56:09.545Z,90.66
2017-10-27T05:57:09.557Z,90.63
2017-10-27T05:58:09.488Z,90.61
2017-10-27T05:59:09.527Z,90.66
2017-10-27T06:00:09.419Z,90.39
2017-10-27T06:01:09.447Z,90.34
2017-10-27T06:02:09.542Z,90.28
2017-10-27T06:03:09.416Z,90.39
2017-10-27T06:04:09.543Z,90.61
2017-10-27T06:05:09.539Z,90.34
2017-10-27T06:06:09.543Z,90.47
2017-10-27T06:07:09.543Z,90.39
2017-10-27T06:08:09.457Z,91.01
2017-10-27T06:09:09.496Z,91.20
2017-10-27T06:10:09.494Z,90.53
2017-10-27T06:11:09.494Z,90.26
2017-10-27T06:12:09.568Z,90.07
2017-10-27T06:13:09.581Z,90.13
2017-10-27T06:14:09.500Z,90.20
2017-10-27T06:15:09.569Z,90.31
2017-10-27T06:16:09.513Z,91.20
2017-10-27T06:17:09.572Z,90.71
2017-10-27T06:18:09.500Z,90.96
2017-10-27T06:19:09.560Z,90.36
2017-10-27T06:20:09.586Z,90.36
2017-10-27T06:21:09.557Z,90.31
2017-10-27T06:22:09.476Z,90.47
2017-10-27T06:23:09.560Z,90.85
2017-10-27T06:24:09.572Z,90.63
2017-10-27T06:25:09.780Z,90.66
2017-10-27T06:26:09.474Z,90.53
2017-10-27T06:27:09.472Z,90.36
2017-10-27T06:28:09.543Z,89.97
2017-10-27T06:29:09.449Z,89.83
2017-10-27T06:30:09.467Z,90.61
2017-10-27T06:31:09.450Z,90.61
2017-10-27T06:32:09.558Z,90.63
2017-10-27T06:33:09.537Z,90.90
2017-10-27T06:34:09.470Z,89.99
2017-10-27T06:35:09.450Z,89.88
2017-10-27T06:36:09.463Z,89.08
2017-10-27T06:37:09.561Z,89.54
2017-10-27T06:38:09.523Z,89.62
2017-10-27T06:39:09.464Z,89.54
2017-10-27T06:40:09.512Z,89.35
2017-10-27T06:41:09.511Z,89.64
2017-10-27T06:42:09.515Z,89.59
2017-10-27T06:43:09.531Z,89.78
2017-10-27T06:44:09.482Z,89.67
2017-10-27T06:45:09.573Z,89.54
2017-10-27T06:46:09.573Z,89.70
2017-10-27T06:47:09.516Z,88.95
2017-10-27T06:48:09.469Z,88.73
2017-10-27T06:49:09.452Z,89.16
2017-10-27T06:50:09.553Z,88.92
2017-10-27T06:51:09.589Z,88.62
2017-10-27T06:52:09.554Z,88.76
2017-10-27T06:53:09.583Z,88.20
2017-10-27T06:54:09.537Z,87.45
2017-10-27T06:55:09.558Z,87.98
2017-10-27T06:56:09.517Z,87.85
2017-10-27T06:57:09.474Z,87.34
2017-10-27T06:58:09.494Z,87.29
2017-10-27T06:59:09.545Z,86.89
2017-10-27T07:00:09.593Z,86.79
2017-10-27T07:01:09.581Z,87.61
2017-10-27T07:02:09.519Z,88.15
2017-10-27T07:03:09.584Z,87.77
2017-10-27T07:04:09.560Z,85.99
2017-10-27T07:05:09.528Z,86.28
2017-10-27T07:06:09.541Z,86.36
2017-10-27T07:07:09.496Z,85.40
2017-10-27T07:08:09.583Z,85.13
2017-10-27T07:09:09.497Z,85.61
2017-10-27T07:10:09.600Z,86.15
2017-10-27T07:11:09.607Z,86.01
2017-10-27T07:12:09.499Z,85.75
2017-10-27T07:13:09.529Z,86.44
2017-10-27T07:14:09.504Z,87.16
2017-10-27T07:15:09.602Z,86.22
2017-10-27T07:16:09.589Z,86.36
2017-10-27T07:17:09.529Z,86.94
2017-10-27T07:18:09.489Z,86.09
2017-10-27T07:19:09.466Z,86.07
2017-10-27T07:20:09.466Z,86.36
2017-10-27T07:21:09.499Z,86.38
2017-10-27T07:22:09.554Z,86.25
2017-10-27T07:23:09.499Z,86.89
2017-10-27T07:24:09.481Z,86.79
2017-10-27T07:25:09.536Z,86.60
2017-10-27T07:26:09.539Z,86.38
2017-10-27T07:27:09.591Z,86.71
2017-10-27T07:28:09.574Z,86.46
2017-10-27T07:29:09.611Z,86.71
2017-10-27T07:30:09.599Z,87.05
2017-10-27T07:31:09.613Z,86.97
2017-10-27T07:32:09.559Z,87.08
2017-10-27T07:33:09.617Z,86.87
2017-10-27T07:34:09.521Z,86.41
2017-10-27T07:35:09.584Z,86.57
2017-10-27T07:36:09.542Z,86.09
2017-10-27T07:37:09.559Z,85.11
2017-10-27T07:38:09.511Z,85.40
2017-10-27T07:39:09.526Z,85.46
2017-10-27T07:40:09.527Z,85.38
2017-10-27T07:41:09.577Z,85.24
2017-10-27T07:42:09.576Z,83.91
2017-10-27T07:43:09.550Z,84.87
2017-10-27T07:44:09.579Z,84.17
2017-10-27T07:45:09.479Z,84.23
2017-10-27T07:46:09.544Z,85.72
2017-10-27T07:47:09.531Z,87.51
2017-10-27T07:48:09.585Z,88.15
2017-10-27T07:49:09.552Z,88.39
2017-10-27T07:50:09.625Z,89.16
2017-10-27T07:51:09.592Z,89.29
2017-10-27T07:52:09.616Z,90.34
2017-10-27T07:53:09.558Z,91.65
2017-10-27T07:54:09.650Z,91.76
2017-10-27T07:55:09.557Z,91.11
2017-10-27T07:56:09.558Z,91.25
2017-10-27T07:57:09.636Z,91.92
2017-10-27T07:58:09.557Z,92.30
2017-10-27T07:59:09.576Z,92.54
2017-10-27T08:00:09.540Z,91.95
2017-10-27T08:01:09.637Z,92.05
2017-10-27T08:02:09.535Z,92.24
2017-10-27T08:03:09.573Z,92.03
2017-10-27T08:04:09.509Z,91.55
2017-10-27T08:05:09.573Z,90.02
2017-10-27T08:06:09.633Z,89.45
2017-10-27T08:07:09.621Z,88.01
2017-10-27T08:08:09.619Z,88.01
2017-10-27T08:09:09.592Z,89.29
2017-10-27T08:10:09.525Z,89.75
2017-10-27T08:11:09.578Z,87.90
2017-10-27T08:12:09.597Z,88.15
2017-10-27T08:13:09.489Z,87.56
2017-10-27T08:14:09.503Z,87.48
2017-10-27T08:15:09.563Z,86.87
2017-10-27T08:16:09.615Z,84.92
2017-10-27T08:17:09.597Z,85.46
2017-10-27T08:18:09.593Z,86.28
2017-10-27T08:19:09.568Z,86.60
2017-10-27T08:20:09.497Z,86.79
2017-10-27T08:21:09.502Z,86.97
2017-10-27T08:22:09.508Z,86.60
2017-10-27T08:23:09.551Z,86.79
2017-10-27T08:24:09.503Z,86.12
2017-10-27T08:25:09.504Z,86.52
2017-10-27T08:26:09.461Z,86.09
2017-10-27T08:27:09.463Z,85.93
2017-10-27T08:28:09.523Z,86.28
2017-10-27T08:29:09.632Z,86.52
2017-10-27T08:30:09.530Z,86.36
2017-10-27T08:31:09.529Z,85.75
2017-10-27T08:32:09.613Z,85.69
2017-10-27T08:33:09.538Z,86.07
2017-10-27T08:34:09.647Z,86.33
2017-10-27T08:35:09.535Z,86.30
2017-10-27T08:36:09.637Z,85.24
2017-10-27T08:37:09.616Z,85.53
2017-10-27T08:38:09.603Z,86.12
2017-10-27T08:39:09.518Z,85.19
2017-10-27T08:40:09.601Z,84.36
2017-10-27T08:41:09.517Z,85.43
2017-10-27T08:42:09.618Z,83.97
2017-10-27T08:43:09.539Z,84.31
2017-10-27T08:44:09.564Z,85.43
2017-10-27T08:45:09.557Z,85.77
2017-10-27T08:46:09.604Z,84.92
2017-10-27T08:47:09.607Z,85.50
2017-10-27T08:48:09.528Z,83.59
2017-10-27T08:49:09.661Z,84.50
2017-10-27T08:50:09.661Z,84.63
2017-10-27T08:51:09.590Z,85.08
2017-10-27T08:52:09.663Z,83.78
2017-10-27T08:53:09.589Z,83.38
2017-10-27T08:54:09.664Z,82.53
2017-10-27T08:55:09.588Z,82.06
2017-10-27T08:56:09.664Z,82.75
2017-10-27T08:57:09.594Z,83.57
2017-10-27T08:58:09.668Z,83.67
2017-10-27T08:59:09.665Z,83.51
2017-10-27T09:00:09.613Z,82.48
2017-10-27T09:01:09.665Z,82.75
2017-10-27T09:02:09.590Z,82.82
2017-10-27T09:03:09.631Z,81.42
2017-10-27T09:04:09.664Z,81.82
2017-10-27T09:05:09.578Z,81.32
2017-10-27T09:06:09.629Z,80.71
2017-10-27T09:07:09.667Z,81.56
2017-10-27T09:08:09.654Z,81.05
2017-10-27T09:09:09.606Z,81.92
2017-10-27T09:10:09.674Z,81.45
2017-10-27T09:11:09.600Z,81.21
2017-10-27T09:12:09.676Z,82.27
2017-10-27T09:13:09.714Z,82.59
2017-10-27T09:14:09.606Z,81.98
2017-10-27T09:15:09.679Z,80.23
2017-10-27T09:16:09.603Z,81.13
2017-10-27T09:17:09.603Z,81.26
2017-10-27T09:18:09.606Z,81.00
2017-10-27T09:19:09.565Z,80.47
2017-10-27T09:20:09.546Z,80.68
2017-10-27T09:21:09.659Z,81.92
2017-10-27T09:22:09.542Z,80.79
2017-10-27T09:23:09.552Z,79.49
2017-10-27T09:24:09.626Z,79.65
2017-10-27T09:25:09.546Z,80.10
2017-10-27T09:26:09.541Z,79.60
2017-10-27T09:27:09.557Z,79.91
2017-10-27T09:28:09.661Z,80.29
2017-10-27T09:29:09.622Z,79.71
2017-10-27T09:30:09.628Z,78.67
2017-10-27T09:31:09.515Z,78.83
2017-10-27T09:32:09.562Z,79.73
2017-10-27T09:33:09.539Z,78.65
2017-10-27T09:34:09.579Z,77.99
2017-10-27T09:35:09.588Z,78.44
2017-10-27T09:36:09.580Z,78.33
2017-10-27T09:37:09.539Z,78.65
2017-10-27T09:38:09.538Z,78.86
2017-10-27T09:39:09.592Z,78.59
2017-10-27T09:40:09.656Z,77.25
2017-10-27T09:41:09.655Z,78.23
2017-10-27T09:42:09.688Z,78.25
2017-10-27T09:43:09.641Z,78.52
2017-10-27T09:44:09.591Z,77.78
2017-10-27T09:45:09.685Z,77.07
2017-10-27T09:46:09.694Z,78.36
2017-10-27T09:47:09.678Z,78.52
2017-10-27T09:48:09.694Z,78.67
2017-10-27T09:49:09.633Z,78.47
2017-10-27T09:50:09.624Z,78.49
2017-10-27T09:51:09.696Z,77.31
2017-10-27T09:52:09.625Z,77.23
2017-10-27T09:53:09.701Z,75.76
2017-10-27T09:54:09.664Z,75.23
2017-10-27T09:55:09.707Z,75.23
2017-10-27T09:56:09.625Z,75.57
2017-10-27T09:57:09.700Z,75.68
2017-10-27T09:58:09.701Z,73.79
2017-10-27T09:59:09.581Z,75.21
2017-10-27T10:00:09.714Z,75.65
2017-10-27T10:01:09.623Z,76.26
2017-10-27T10:02:09.603Z,75.86
2017-10-27T10:03:09.649Z,76.34
2017-10-27T10:04:09.705Z,76.23
2017-10-27T10:05:09.691Z,76.12
2017-10-27T10:06:09.692Z,76.26
2017-10-27T10:07:09.669Z,76.65
2017-10-27T10:08:09.589Z,77.36
2017-10-27T10:09:09.635Z,77.04
2017-10-27T10:10:09.709Z,77.89
2017-10-27T10:11:09.708Z,78.28
2017-10-27T10:12:09.646Z,78.41
2017-10-27T10:13:09.711Z,78.17
2017-10-27T10:14:09.720Z,77.67
2017-10-27T10:15:09.641Z,78.57
2017-10-27T10:16:09.641Z,78.33
2017-10-27T10:17:09.714Z,78.52
2017-10-27T10:18:09.649Z,77.54
2017-10-27T10:19:09.711Z,77.47
2017-10-27T10:20:09.712Z,77.91
2017-10-27T10:21:09.682Z,77.25
2017-10-27T10:22:09.666Z,78.47
2017-10-27T10:23:09.707Z,77.91
2017-10-27T10:24:09.599Z,78.41
2017-10-27T10:25:09.672Z,78.41
2017-10-27T10:26:09.689Z,79.20
2017-10-27T10:27:09.674Z,79.15
2017-10-27T10:28:09.600Z,78.91
2017-10-27T10:29:09.652Z,78.57
2017-10-27T10:30:09.724Z,79.60
2017-10-27T10:31:09.681Z,79.57
2017-10-27T10:32:09.721Z,77.23
2017-10-27T10:33:09.654Z,77.07
2017-10-27T10:34:09.722Z,77.07
2017-10-27T10:35:09.649Z,76.12
2017-10-27T10:36:09.647Z,76.83
2017-10-27T10:37:09.723Z,75.92
2017-10-27T10:38:09.653Z,77.09
2017-10-27T10:39:09.649Z,76.49
2017-10-27T10:40:09.652Z,76.41
2017-10-27T10:41:09.628Z,76.65
2017-10-27T10:42:09.689Z,77.49
2017-10-27T10:43:09.630Z,77.54
2017-10-27T10:44:09.725Z,76.91
2017-10-27T10:45:09.630Z,74.89
2017-10-27T10:46:09.676Z,74.66
2017-10-27T10:47:09.680Z,74.32
2017-10-27T10:48:09.617Z,74.92
2017-10-27T10:49:09.732Z,75.23
2017-10-27T10:50:09.731Z,75.10
2017-10-27T10:51:09.661Z,75.81
2017-10-27T10:52:09.660Z,76.81
2017-10-27T10:53:09.681Z,77.12
2017-10-27T10:54:09.598Z,77.09
2017-10-27T10:55:09.610Z,77.04
2017-10-27T10:56:09.721Z,77.65
2017-10-27T10:57:09.702Z,78.33
2017-10-27T10:58:09.682Z,78.91
2017-10-27T10:59:09.698Z,78.94
2017-10-27T11:00:09.728Z,79.81
2017-10-27T11:01:09.726Z,80.05
2017-10-27T11:02:09.635Z,79.79
2017-10-27T11:03:09.622Z,79.39
2017-10-27T11:04:09.617Z,79.23
2017-10-27T11:05:09.742Z,79.41
2017-10-27T11:06:09.621Z,79.63
2017-10-27T11:07:09.741Z,79.83
2017-10-27T11:08:09.733Z,80.18
2017-10-27T11:09:09.675Z,80.65
2017-10-27T11:10:09.826Z,78.73
2017-10-27T11:11:09.748Z,76.97
2017-10-27T11:12:09.722Z,76.91
2017-10-27T11:13:09.669Z,76.10
2017-10-27T11:14:09.754Z,75.81
2017-10-27T11:15:09.679Z,75.65
2017-10-27T11:16:09.676Z,74.29
2017-10-27T11:17:09.755Z,74.00
2017-10-27T11:18:09.751Z,74.60
2017-10-27T11:19:09.680Z,73.85
2017-10-27T11:20:09.680Z,74.60
2017-10-27T11:21:09.751Z,75.34
2017-10-27T11:22:09.679Z,75.07
2017-10-27T11:23:09.755Z,74.60
2017-10-27T11:24:09.754Z,75.55
2017-10-27T11:25:09.680Z,75.99
2017-10-27T11:26:09.760Z,74.87
2017-10-27T11:27:09.683Z,75.15
2017-10-27T11:28:09.756Z,75.73
2017-10-27T11:29:09.718Z,74.58
2017-10-27T11:30:09.641Z,75.60
2017-10-27T11:31:09.725Z,75.68
2017-10-27T11:32:09.683Z,75.70
2017-10-27T11:33:09.684Z,74.55
2017-10-27T11:34:09.721Z,74.66
2017-10-27T11:35:09.663Z,74.92
2017-10-27T11:36:09.600Z,75.52
2017-10-27T11:37:09.727Z,75.76
2017-10-27T11:38:09.706Z,75.76
2017-10-27T11:39:09.711Z,75.62
2017-10-27T11:40:09.615Z,74.52
2017-10-27T11:41:09.705Z,75.39
2017-10-27T11:42:09.646Z,75.10
2017-10-27T11:43:09.725Z,74.34
2017-10-27T11:44:09.710Z,74.68
2017-10-27T11:45:09.656Z,74.21
2017-10-27T11:46:09.788Z,73.53
2017-10-27T11:47:09.729Z,73.22
2017-10-27T11:48:09.624Z,72.72
2017-10-27T11:49:09.726Z,73.14
2017-10-27T11:50:09.696Z,73.01
2017-10-27T11:51:09.700Z,72.88
2017-10-27T11:52:09.735Z,71.91
2017-10-27T11:53:09.702Z,71.49
2017-10-27T11:54:09.756Z,71.39
2017-10-27T11:55:09.657Z,70.95
2017-10-27T11:56:09.699Z,70.71
2017-10-27T11:57:09.680Z,70.92
2017-10-27T11:58:09.722Z,71.00
2017-10-27T11:59:09.772Z,71.70
2017-10-27T12:00:09.760Z,71.78
2017-10-27T12:01:09.701Z,70.97
2017-10-27T12:02:09.732Z,72.36
2017-10-27T12:03:09.678Z,71.83
2017-10-27T12:04:09.760Z,72.20
2017-10-27T12:05:09.722Z,71.94
2017-10-27T12:06:09.745Z,71.75
2017-10-27T12:07:09.703Z,71.23
2017-10-27T12:08:09.682Z,69.59
2017-10-27T12:09:09.778Z,71.47
2017-10-27T12:10:09.788Z,71.18
2017-10-27T12:11:09.712Z,71.70
2017-10-27T12:12:09.782Z,71.52
2017-10-27T12:13:09.709Z,71.39
2017-10-27T12:14:09.782Z,69.41
2017-10-27T12:15:09.714Z,69.80
2017-10-27T12:16:09.784Z,69.65
2017-10-27T12:17:09.708Z,67.75
2017-10-27T12:18:09.717Z,66.43
2017-10-27T12:19:09.785Z,67.25
2017-10-27T12:20:09.709Z,67.91
2017-10-27T12:21:09.797Z,67.44
2017-10-27T12:22:09.789Z,67.49
2017-10-27T12:23:09.714Z,67.39
2017-10-27T12:24:09.819Z,67.25
2017-10-27T12:25:09.720Z,66.50
2017-10-27T12:26:09.793Z,66.87
2017-10-27T12:27:09.792Z,65.55
2017-10-27T12:28:09.721Z,64.95
2017-10-27T12:29:09.797Z,65.50
2017-10-27T12:30:09.722Z,64.88
2017-10-27T12:31:09.795Z,64.44
2017-10-27T12:32:09.796Z,64.23
2017-10-27T12:33:09.797Z,66.27
2017-10-27T12:34:09.727Z,66.66
2017-10-27T12:35:09.725Z,67.44
2017-10-27T12:36:09.797Z,66.69
2017-10-27T12:37:09.799Z,66.97
2017-10-27T12:38:09.725Z,65.99
2017-10-27T12:39:09.690Z,66.14
2017-10-27T12:40:09.755Z,66.37
2017-10-27T12:41:09.735Z,66.17
2017-10-27T12:42:09.800Z,65.60
2017-10-27T12:43:09.731Z,66.25
2017-10-27T12:44:09.805Z,66.27
2017-10-27T12:45:09.740Z,66.09
2017-10-27T12:46:09.805Z,66.09
2017-10-27T12:47:09.735Z,65.18
2017-10-27T12:48:09.805Z,64.90
2017-10-27T12:49:09.739Z,65.47
2017-10-27T12:50:09.807Z,65.78
2017-10-27T12:51:09.823Z,65.37
2017-10-27T12:52:09.740Z,66.01